Terminal Aerodrome Forecast
Issued by NWS

Home | Current Version | Previous Version | Text Only | Print | Product List | Glossary On
Versions: 1 2 3 4 5 6 7 8 9 10 11 12
186
FTUS46 KMTR 211126
TAFOAK
TAF
KOAK 211126Z 2112/2218 22016G24KT P6SM -SHRA BKN040 BKN060
     FM211500 21015G21KT P6SM -SHRA BKN050
     FM212000 24012G20KT P6SM -SHRA BKN040
     FM220200 27012KT P6SM -SHRA SCT020 BKN080
     FM220500 27010KT P6SM SCT020 SCT080
     FM221300 30006KT P6SM SCT030=

USA.gov is the U.S. government's official web portal to all federal, state and local government web resources and services.